sensor_id;sensor_type;location;lat;lon;timestamp;temperature;humidity
24207;DHT22;12351;52.284;9.160;2023-02-28T00:00:40;0.00;1.00
24207;DHT22;12351;52.284;9.160;2023-02-28T00:03:30;0.00;1.00
24207;DHT22;12351;52.284;9.160;2023-02-28T00:06:20;0.00;1.00
24207;DHT22;12351;52.284;9.160;2023-02-28T00:09:11;-0.10;1.00
24207;DHT22;12351;52.284;9.160;2023-02-28T00:12:03;0.00;1.00
24207;DHT22;12351;52.284;9.160;2023-02-28T00:14:50;-0.10;1.00
24207;DHT22;12351;52.284;9.160;2023-02-28T00:17:43;-0.10;1.00
24207;DHT22;12351;52.284;9.160;2023-02-28T00:20:33;-0.10;1.00
24207;DHT22;12351;52.284;9.160;2023-02-28T00:23:24;-0.10;1.00
24207;DHT22;12351;52.284;9.160;2023-02-28T00:26:13;-0.10;1.00
24207;DHT22;12351;52.284;9.160;2023-02-28T00:29:04;-0.10;1.00
24207;DHT22;12351;52.284;9.160;2023-02-28T00:31:57;-0.20;1.00
24207;DHT22;12351;52.284;9.160;2023-02-28T00:34:45;-0.20;1.00
24207;DHT22;12351;52.284;9.160;2023-02-28T00:37:37;-0.30;1.00
24207;DHT22;12351;52.284;9.160;2023-02-28T00:40:28;-0.30;1.00
24207;DHT22;12351;52.284;9.160;2023-02-28T00:43:15;-0.30;1.00
24207;DHT22;12351;52.284;9.160;2023-02-28T00:46:05;-0.30;1.00
24207;DHT22;12351;52.284;9.160;2023-02-28T00:48:57;-0.30;1.00
24207;DHT22;12351;52.284;9.160;2023-02-28T00:51:49;-0.30;1.00
24207;DHT22;12351;52.284;9.160;2023-02-28T00:54:39;-0.40;1.00
24207;DHT22;12351;52.284;9.160;2023-02-28T00:57:28;-0.40;1.00
24207;DHT22;12351;52.284;9.160;2023-02-28T01:00:18;-0.40;1.00
24207;DHT22;12351;52.284;9.160;2023-02-28T01:03:06;-0.40;1.00
24207;DHT22;12351;52.284;9.160;2023-02-28T01:05:59;-0.40;1.00
24207;DHT22;12351;52.284;9.160;2023-02-28T01:08:51;-0.50;1.00
24207;DHT22;12351;52.284;9.160;2023-02-28T01:11:44;-0.60;1.00
24207;DHT22;12351;52.284;9.160;2023-02-28T01:14:33;-0.60;1.00
24207;DHT22;12351;52.284;9.160;2023-02-28T01:17:22;-0.60;1.00
24207;DHT22;12351;52.284;9.160;2023-02-28T01:20:14;-0.70;1.00
24207;DHT22;12351;52.284;9.160;2023-02-28T01:23:04;-0.70;1.00
24207;DHT22;12351;52.284;9.160;2023-02-28T01:25:53;-0.70;1.00
24207;DHT22;12351;52.284;9.160;2023-02-28T01:28:47;-0.70;99.90
24207;DHT22;12351;52.284;9.160;2023-02-28T01:31:34;-0.80;99.90
24207;DHT22;12351;52.284;9.160;2023-02-28T01:34:27;-0.80;1.00
24207;DHT22;12351;52.284;9.160;2023-02-28T01:37:15;-0.80;1.00
24207;DHT22;12351;52.284;9.160;2023-02-28T01:40:05;-0.80;1.00
24207;DHT22;12351;52.284;9.160;2023-02-28T01:42:54;-0.80;1.00
24207;DHT22;12351;52.284;9.160;2023-02-28T01:45:48;-0.80;1.00
24207;DHT22;12351;52.284;9.160;2023-02-28T01:48:38;-0.90;1.00
24207;DHT22;12351;52.284;9.160;2023-02-28T01:51:30;-0.90;1.00
24207;DHT22;12351;52.284;9.160;2023-02-28T01:54:18;-0.90;1.00
24207;DHT22;12351;52.284;9.160;2023-02-28T01:57:09;-0.90;1.00
24207;DHT22;12351;52.284;9.160;2023-02-28T01:59:59;-0.90;1.00
24207;DHT22;12351;52.284;9.160;2023-02-28T02:02:49;-1.00;1.00
24207;DHT22;12351;52.284;9.160;2023-02-28T02:05:40;-0.90;1.00
24207;DHT22;12351;52.284;9.160;2023-02-28T02:08:33;-1.00;99.90
24207;DHT22;12351;52.284;9.160;2023-02-28T02:11:23;-1.00;99.90
24207;DHT22;12351;52.284;9.160;2023-02-28T02:22:43;-1.00;99.90
24207;DHT22;12351;52.284;9.160;2023-02-28T02:25:29;-1.10;99.90
24207;DHT22;12351;52.284;9.160;2023-02-28T02:31:14;-1.10;99.90
24207;DHT22;12351;52.284;9.160;2023-02-28T02:36:50;-1.20;1.00
24207;DHT22;12351;52.284;9.160;2023-02-28T02:39:43;-1.20;99.90
24207;DHT22;12351;52.284;9.160;2023-02-28T02:45:21;-1.30;99.90
24207;DHT22;12351;52.284;9.160;2023-02-28T02:48:09;-1.30;99.90
24207;DHT22;12351;52.284;9.160;2023-02-28T02:50:59;-1.30;99.90
24207;DHT22;12351;52.284;9.160;2023-02-28T02:53:48;-1.40;99.90
24207;DHT22;12351;52.284;9.160;2023-02-28T02:56:36;-1.40;99.90
24207;DHT22;12351;52.284;9.160;2023-02-28T02:59:28;-1.50;99.90
24207;DHT22;12351;52.284;9.160;2023-02-28T03:02:21;-1.40;99.90
24207;DHT22;12351;52.284;9.160;2023-02-28T03:07:59;-1.50;1.00
24207;DHT22;12351;52.284;9.160;2023-02-28T03:10:49;-1.60;1.00
24207;DHT22;12351;52.284;9.160;2023-02-28T03:25:07;-1.70;1.00
24207;DHT22;12351;52.284;9.160;2023-02-28T03:36:28;-1.90;1.00
24207;DHT22;12351;52.284;9.160;2023-02-28T03:39:18;-2.00;1.00
24207;DHT22;12351;52.284;9.160;2023-02-28T03:44:58;-1.90;1.00
24207;DHT22;12351;52.284;9.160;2023-02-28T03:47:50;-1.90;1.00
24207;DHT22;12351;52.284;9.160;2023-02-28T03:50:40;-1.90;1.00
24207;DHT22;12351;52.284;9.160;2023-02-28T03:53:32;-2.00;1.00
24207;DHT22;12351;52.284;9.160;2023-02-28T03:59:13;-2.00;1.00
24207;DHT22;12351;52.284;9.160;2023-02-28T04:02:01;-2.00;1.00
24207;DHT22;12351;52.284;9.160;2023-02-28T04:04:50;-2.00;1.00
24207;DHT22;12351;52.284;9.160;2023-02-28T04:07:40;-2.10;1.00
24207;DHT22;12351;52.284;9.160;2023-02-28T04:10:28;-2.10;1.00
24207;DHT22;12351;52.284;9.160;2023-02-28T04:13:17;-2.10;1.00
24207;DHT22;12351;52.284;9.160;2023-02-28T04:16:09;-2.10;1.00
24207;DHT22;12351;52.284;9.160;2023-02-28T04:19:01;-2.20;1.00
24207;DHT22;12351;52.284;9.160;2023-02-28T04:21:52;-2.10;1.00
24207;DHT22;12351;52.284;9.160;2023-02-28T04:24:41;-2.10;1.00
24207;DHT22;12351;52.284;9.160;2023-02-28T04:27:31;-2.10;99.90
24207;DHT22;12351;52.284;9.160;2023-02-28T04:30:24;-2.10;99.90
24207;DHT22;12351;52.284;9.160;2023-02-28T04:33:12;-2.10;99.90
24207;DHT22;12351;52.284;9.160;2023-02-28T04:36:04;-2.20;99.90
24207;DHT22;12351;52.284;9.160;2023-02-28T04:38:55;-2.30;1.00
24207;DHT22;12351;52.284;9.160;2023-02-28T04:41:44;-2.30;99.90
24207;DHT22;12351;52.284;9.160;2023-02-28T04:44:36;-2.30;1.00
24207;DHT22;12351;52.284;9.160;2023-02-28T04:47:24;-2.30;99.90
24207;DHT22;12351;52.284;9.160;2023-02-28T04:50:17;-2.40;1.00
24207;DHT22;12351;52.284;9.160;2023-02-28T04:53:05;-2.50;1.00
24207;DHT22;12351;52.284;9.160;2023-02-28T04:55:53;-2.50;1.00
24207;DHT22;12351;52.284;9.160;2023-02-28T04:58:44;-2.50;1.00
24207;DHT22;12351;52.284;9.160;2023-02-28T05:01:33;-2.40;99.90
24207;DHT22;12351;52.284;9.160;2023-02-28T05:04:23;-2.40;99.90
24207;DHT22;12351;52.284;9.160;2023-02-28T05:07:12;-2.40;99.90
24207;DHT22;12351;52.284;9.160;2023-02-28T05:10:04;-2.40;99.90
24207;DHT22;12351;52.284;9.160;2023-02-28T05:12:51;-2.50;99.90
24207;DHT22;12351;52.284;9.160;2023-02-28T05:15:42;-2.50;99.90
24207;DHT22;12351;52.284;9.160;2023-02-28T05:18:33;-2.50;99.90
24207;DHT22;12351;52.284;9.160;2023-02-28T05:21:24;-2.50;99.90
24207;DHT22;12351;52.284;9.160;2023-02-28T05:24:13;-2.50;27.50
24207;DHT22;12351;52.284;9.160;2023-02-28T05:27:03;-2.50;1.00
24207;DHT22;12351;52.284;9.160;2023-02-28T05:29:53;-2.60;1.00
24207;DHT22;12351;52.284;9.160;2023-02-28T05:32:49;-2.60;1.00
24207;DHT22;12351;52.284;9.160;2023-02-28T05:35:36;-2.60;1.00
24207;DHT22;12351;52.284;9.160;2023-02-28T05:38:27;-2.50;1.00
24207;DHT22;12351;52.284;9.160;2023-02-28T05:41:14;-2.50;1.00
24207;DHT22;12351;52.284;9.160;2023-02-28T05:44:05;-2.50;1.00
24207;DHT22;12351;52.284;9.160;2023-02-28T05:46:53;-2.60;1.00
24207;DHT22;12351;52.284;9.160;2023-02-28T05:49:42;-2.60;75.10
24207;DHT22;12351;52.284;9.160;2023-02-28T05:52:33;-2.60;72.20
24207;DHT22;12351;52.284;9.160;2023-02-28T05:55:19;-2.60;62.30
24207;DHT22;12351;52.284;9.160;2023-02-28T05:58:09;-2.50;1.00
24207;DHT22;12351;52.284;9.160;2023-02-28T06:00:59;-2.60;1.00
24207;DHT22;12351;52.284;9.160;2023-02-28T06:03:48;-2.60;1.00
24207;DHT22;12351;52.284;9.160;2023-02-28T06:06:40;-2.60;93.20
24207;DHT22;12351;52.284;9.160;2023-02-28T06:09:27;-2.50;99.90
24207;DHT22;12351;52.284;9.160;2023-02-28T06:12:16;-2.50;99.90
24207;DHT22;12351;52.284;9.160;2023-02-28T06:15:05;-2.60;71.10
24207;DHT22;12351;52.284;9.160;2023-02-28T06:17:57;-2.60;79.00
24207;DHT22;12351;52.284;9.160;2023-02-28T06:20:44;-2.60;99.90
24207;DHT22;12351;52.284;9.160;2023-02-28T06:23:34;-2.50;99.90
24207;DHT22;12351;52.284;9.160;2023-02-28T06:26:25;-2.60;99.90
24207;DHT22;12351;52.284;9.160;2023-02-28T06:29:18;-2.60;99.90
24207;DHT22;12351;52.284;9.160;2023-02-28T06:32:07;-2.60;99.90
24207;DHT22;12351;52.284;9.160;2023-02-28T06:34:59;-2.50;99.90
24207;DHT22;12351;52.284;9.160;2023-02-28T06:37:48;-2.50;99.90
24207;DHT22;12351;52.284;9.160;2023-02-28T06:40:37;-2.50;99.90
24207;DHT22;12351;52.284;9.160;2023-02-28T06:43:28;-2.50;99.90
24207;DHT22;12351;52.284;9.160;2023-02-28T06:46:17;-2.50;99.90
24207;DHT22;12351;52.284;9.160;2023-02-28T06:49:08;-2.40;99.90
24207;DHT22;12351;52.284;9.160;2023-02-28T06:52:01;-2.40;99.90
24207;DHT22;12351;52.284;9.160;2023-02-28T06:54:51;-2.40;99.90
24207;DHT22;12351;52.284;9.160;2023-02-28T06:57:41;-2.30;99.90
24207;DHT22;12351;52.284;9.160;2023-02-28T07:00:34;-2.30;99.90
24207;DHT22;12351;52.284;9.160;2023-02-28T07:03:23;-2.30;99.90
24207;DHT22;12351;52.284;9.160;2023-02-28T07:06:16;-2.20;99.90
24207;DHT22;12351;52.284;9.160;2023-02-28T07:09:06;-2.20;99.90
24207;DHT22;12351;52.284;9.160;2023-02-28T07:11:57;-2.20;99.90
24207;DHT22;12351;52.284;9.160;2023-02-28T07:14:46;-2.10;99.90
24207;DHT22;12351;52.284;9.160;2023-02-28T07:17:35;-2.00;99.90
24207;DHT22;12351;52.284;9.160;2023-02-28T07:20:28;-1.80;99.90
24207;DHT22;12351;52.284;9.160;2023-02-28T07:23:15;-1.60;1.00
24207;DHT22;12351;52.284;9.160;2023-02-28T07:26:06;-1.50;1.00
24207;DHT22;12351;52.284;9.160;2023-02-28T07:28:59;-1.50;1.00
24207;DHT22;12351;52.284;9.160;2023-02-28T07:31:47;-1.40;1.00
24207;DHT22;12351;52.284;9.160;2023-02-28T07:34:38;-1.20;99.90
24207;DHT22;12351;52.284;9.160;2023-02-28T07:37:27;-0.90;1.00
24207;DHT22;12351;52.284;9.160;2023-02-28T07:40:18;-0.90;99.90
24207;DHT22;12351;52.284;9.160;2023-02-28T07:43:10;-0.80;99.90
24207;DHT22;12351;52.284;9.160;2023-02-28T07:46:01;-0.60;99.90
24207;DHT22;12351;52.284;9.160;2023-02-28T07:48:51;-0.50;1.00
24207;DHT22;12351;52.284;9.160;2023-02-28T07:51:39;-0.30;1.00
24207;DHT22;12351;52.284;9.160;2023-02-28T07:54:28;-0.10;99.90
24207;DHT22;12351;52.284;9.160;2023-02-28T07:57:16;0.00;55.10
24207;DHT22;12351;52.284;9.160;2023-02-28T08:00:08;0.20;1.00
24207;DHT22;12351;52.284;9.160;2023-02-28T08:03:01;0.20;1.00
24207;DHT22;12351;52.284;9.160;2023-02-28T08:05:50;0.30;1.00
24207;DHT22;12351;52.284;9.160;2023-02-28T08:08:41;0.60;1.00
24207;DHT22;12351;52.284;9.160;2023-02-28T08:11:33;0.80;1.00
24207;DHT22;12351;52.284;9.160;2023-02-28T08:14:22;1.00;1.00
24207;DHT22;12351;52.284;9.160;2023-02-28T08:17:14;1.00;1.00
24207;DHT22;12351;52.284;9.160;2023-02-28T08:20:03;1.10;1.00
24207;DHT22;12351;52.284;9.160;2023-02-28T08:22:53;1.20;1.00
24207;DHT22;12351;52.284;9.160;2023-02-28T08:25:42;1.20;99.90
24207;DHT22;12351;52.284;9.160;2023-02-28T08:28:31;1.20;1.00
24207;DHT22;12351;52.284;9.160;2023-02-28T08:31:21;1.30;1.00
24207;DHT22;12351;52.284;9.160;2023-02-28T08:34:12;1.30;1.00
24207;DHT22;12351;52.284;9.160;2023-02-28T08:37:02;1.40;1.00
24207;DHT22;12351;52.284;9.160;2023-02-28T08:39:52;1.50;1.00
24207;DHT22;12351;52.284;9.160;2023-02-28T08:42:41;1.50;1.00
24207;DHT22;12351;52.284;9.160;2023-02-28T08:45:32;1.60;1.00
24207;DHT22;12351;52.284;9.160;2023-02-28T08:48:22;1.60;1.00
24207;DHT22;12351;52.284;9.160;2023-02-28T08:51:14;1.70;1.00
24207;DHT22;12351;52.284;9.160;2023-02-28T08:54:05;1.70;1.00
24207;DHT22;12351;52.284;9.160;2023-02-28T08:56:56;1.80;1.00
24207;DHT22;12351;52.284;9.160;2023-02-28T08:59:44;1.80;1.00
24207;DHT22;12351;52.284;9.160;2023-02-28T09:02:33;1.80;1.00
24207;DHT22;12351;52.284;9.160;2023-02-28T09:05:22;1.90;99.90
24207;DHT22;12351;52.284;9.160;2023-02-28T09:08:14;2.00;99.90
24207;DHT22;12351;52.284;9.160;2023-02-28T09:11:03;2.10;1.00
24207;DHT22;12351;52.284;9.160;2023-02-28T09:13:52;2.20;1.00
24207;DHT22;12351;52.284;9.160;2023-02-28T09:16:41;2.30;1.00
24207;DHT22;12351;52.284;9.160;2023-02-28T09:19:34;2.30;1.00
24207;DHT22;12351;52.284;9.160;2023-02-28T09:22:23;2.30;1.00
24207;DHT22;12351;52.284;9.160;2023-02-28T09:25:13;2.30;1.00
24207;DHT22;12351;52.284;9.160;2023-02-28T09:28:02;2.30;1.00
24207;DHT22;12351;52.284;9.160;2023-02-28T09:30:51;2.50;1.00
24207;DHT22;12351;52.284;9.160;2023-02-28T09:33:45;2.50;1.00
24207;DHT22;12351;52.284;9.160;2023-02-28T09:36:33;2.70;1.00
24207;DHT22;12351;52.284;9.160;2023-02-28T09:39:26;2.70;1.00
24207;DHT22;12351;52.284;9.160;2023-02-28T09:42:19;2.60;1.00
24207;DHT22;12351;52.284;9.160;2023-02-28T09:45:13;2.70;1.00
24207;DHT22;12351;52.284;9.160;2023-02-28T09:47:59;2.70;1.00
24207;DHT22;12351;52.284;9.160;2023-02-28T09:50:50;2.70;1.00
24207;DHT22;12351;52.284;9.160;2023-02-28T09:53:39;2.70;1.00
24207;DHT22;12351;52.284;9.160;2023-02-28T10:07:56;2.60;1.00
24207;DHT22;12351;52.284;9.160;2023-02-28T10:10:44;2.60;1.00
24207;DHT22;12351;52.284;9.160;2023-02-28T10:13:35;2.60;1.00
24207;DHT22;12351;52.284;9.160;2023-02-28T10:16:25;2.70;1.00
24207;DHT22;12351;52.284;9.160;2023-02-28T10:19:16;2.60;1.00
24207;DHT22;12351;52.284;9.160;2023-02-28T10:22:10;2.80;1.00
24207;DHT22;12351;52.284;9.160;2023-02-28T10:24:55;2.90;1.00
24207;DHT22;12351;52.284;9.160;2023-02-28T10:27:46;3.00;1.00
24207;DHT22;12351;52.284;9.160;2023-02-28T10:30:40;3.00;1.00
24207;DHT22;12351;52.284;9.160;2023-02-28T10:33:31;3.00;1.00
24207;DHT22;12351;52.284;9.160;2023-02-28T10:36:20;2.90;1.00
24207;DHT22;12351;52.284;9.160;2023-02-28T10:42:04;2.80;1.00
24207;DHT22;12351;52.284;9.160;2023-02-28T11:01:46;3.20;97.10
24207;DHT22;12351;52.284;9.160;2023-02-28T11:04:39;3.20;99.90
24207;DHT22;12351;52.284;9.160;2023-02-28T11:07:29;3.20;99.90
24207;DHT22;12351;52.284;9.160;2023-02-28T11:10:22;3.20;99.90
24207;DHT22;12351;52.284;9.160;2023-02-28T11:16:04;3.30;74.60
24207;DHT22;12351;52.284;9.160;2023-02-28T11:18:52;3.20;41.00
24207;DHT22;12351;52.284;9.160;2023-02-28T11:21:47;3.50;55.10
24207;DHT22;12351;52.284;9.160;2023-02-28T11:24:35;3.60;25.50
24207;DHT22;12351;52.284;9.160;2023-02-28T11:36:00;3.60;77.30
24207;DHT22;12351;52.284;9.160;2023-02-28T11:38:48;3.80;73.20
24207;DHT22;12351;52.284;9.160;2023-02-28T11:55:58;4.30;29.60
24207;DHT22;12351;52.284;9.160;2023-02-28T11:58:48;4.10;18.00
24207;DHT22;12351;52.284;9.160;2023-02-28T12:01:38;4.40;29.20
24207;DHT22;12351;52.284;9.160;2023-02-28T12:04:33;4.50;32.20
24207;DHT22;12351;52.284;9.160;2023-02-28T12:13:06;4.60;1.00
24207;DHT22;12351;52.284;9.160;2023-02-28T12:21:30;4.60;1.00
24207;DHT22;12351;52.284;9.160;2023-02-28T12:27:09;4.50;1.00
24207;DHT22;12351;52.284;9.160;2023-02-28T12:29:59;4.30;1.00
24207;DHT22;12351;52.284;9.160;2023-02-28T12:32:49;4.50;1.00
24207;DHT22;12351;52.284;9.160;2023-02-28T12:44:06;4.80;1.00
24207;DHT22;12351;52.284;9.160;2023-02-28T12:46:55;4.70;1.00
24207;DHT22;12351;52.284;9.160;2023-02-28T12:52:37;4.70;1.00
24207;DHT22;12351;52.284;9.160;2023-02-28T12:58:20;4.80;1.00
24207;DHT22;12351;52.284;9.160;2023-02-28T13:09:41;5.50;1.00
24207;DHT22;12351;52.284;9.160;2023-02-28T13:12:29;5.30;1.00
24207;DHT22;12351;52.284;9.160;2023-02-28T13:18:30;5.00;1.00
24207;DHT22;12351;52.284;9.160;2023-02-28T13:21:01;5.00;1.00
24207;DHT22;12351;52.284;9.160;2023-02-28T13:29:39;5.60;1.00
24207;DHT22;12351;52.284;9.160;2023-02-28T13:32:30;5.50;1.00
24207;DHT22;12351;52.284;9.160;2023-02-28T13:35:34;5.20;1.00
24207;DHT22;12351;52.284;9.160;2023-02-28T13:49:35;5.80;1.00
24207;DHT22;12351;52.284;9.160;2023-02-28T13:52:25;5.80;1.00
24207;DHT22;12351;52.284;9.160;2023-02-28T13:55:25;5.60;1.00
24207;DHT22;12351;52.284;9.160;2023-02-28T14:00:57;5.60;1.00
24207;DHT22;12351;52.284;9.160;2023-02-28T14:06:34;6.40;1.00
24207;DHT22;12351;52.284;9.160;2023-02-28T14:20:53;6.20;1.00
24207;DHT22;12351;52.284;9.160;2023-02-28T14:23:45;6.10;1.00
24207;DHT22;12351;52.284;9.160;2023-02-28T14:37:57;5.30;1.00
24207;DHT22;12351;52.284;9.160;2023-02-28T14:40:47;5.30;1.00
24207;DHT22;12351;52.284;9.160;2023-02-28T14:43:47;5.40;1.00
24207;DHT22;12351;52.284;9.160;2023-02-28T14:46:30;5.30;1.00
24207;DHT22;12351;52.284;9.160;2023-02-28T14:55:04;5.30;1.00
24207;DHT22;12351;52.284;9.160;2023-02-28T14:57:55;5.30;1.00
24207;DHT22;12351;52.284;9.160;2023-02-28T15:00:47;5.20;1.00
24207;DHT22;12351;52.284;9.160;2023-02-28T15:03:37;5.00;1.00
24207;DHT22;12351;52.284;9.160;2023-02-28T15:06:29;4.80;1.00
24207;DHT22;12351;52.284;9.160;2023-02-28T15:09:20;4.90;1.00
24207;DHT22;12351;52.284;9.160;2023-02-28T15:12:13;5.10;1.00
24207;DHT22;12351;52.284;9.160;2023-02-28T15:15:02;5.30;1.00
24207;DHT22;12351;52.284;9.160;2023-02-28T15:17:53;5.10;1.00
24207;DHT22;12351;52.284;9.160;2023-02-28T15:20:43;5.00;1.00
24207;DHT22;12351;52.284;9.160;2023-02-28T15:23:34;5.00;1.00
24207;DHT22;12351;52.284;9.160;2023-02-28T15:26:27;4.80;1.00
24207;DHT22;12351;52.284;9.160;2023-02-28T15:29:19;4.70;1.00
24207;DHT22;12351;52.284;9.160;2023-02-28T15:32:26;4.80;1.00
24207;DHT22;12351;52.284;9.160;2023-02-28T15:35:16;4.80;1.00
24207;DHT22;12351;52.284;9.160;2023-02-28T15:37:53;4.90;1.00
24207;DHT22;12351;52.284;9.160;2023-02-28T15:40:44;4.80;1.00
24207;DHT22;12351;52.284;9.160;2023-02-28T15:43:36;4.70;1.00
24207;DHT22;12351;52.284;9.160;2023-02-28T15:46:26;4.80;1.00
24207;DHT22;12351;52.284;9.160;2023-02-28T15:49:17;4.70;1.00
24207;DHT22;12351;52.284;9.160;2023-02-28T15:52:03;4.70;1.00
24207;DHT22;12351;52.284;9.160;2023-02-28T15:54:50;4.80;1.00
24207;DHT22;12351;52.284;9.160;2023-02-28T15:57:39;4.80;1.00
24207;DHT22;12351;52.284;9.160;2023-02-28T16:00:30;4.70;1.00
24207;DHT22;12351;52.284;9.160;2023-02-28T16:08:58;4.60;1.00
24207;DHT22;12351;52.284;9.160;2023-02-28T16:11:47;4.50;1.00
24207;DHT22;12351;52.284;9.160;2023-02-28T16:14:35;4.60;1.00
24207;DHT22;12351;52.284;9.160;2023-02-28T16:17:26;4.50;1.00
24207;DHT22;12351;52.284;9.160;2023-02-28T16:20:18;4.40;1.00
24207;DHT22;12351;52.284;9.160;2023-02-28T16:23:04;4.50;1.00
24207;DHT22;12351;52.284;9.160;2023-02-28T16:25:51;4.40;1.00
24207;DHT22;12351;52.284;9.160;2023-02-28T16:28:38;4.40;1.00
24207;DHT22;12351;52.284;9.160;2023-02-28T16:31:26;4.40;1.00
24207;DHT22;12351;52.284;9.160;2023-02-28T16:34:14;4.50;1.00
24207;DHT22;12351;52.284;9.160;2023-02-28T16:37:01;4.40;1.00
24207;DHT22;12351;52.284;9.160;2023-02-28T16:39:48;4.60;1.00
24207;DHT22;12351;52.284;9.160;2023-02-28T16:42:38;4.30;1.00
24207;DHT22;12351;52.284;9.160;2023-02-28T16:45:27;4.10;1.00
24207;DHT22;12351;52.284;9.160;2023-02-28T16:48:16;4.00;1.00
24207;DHT22;12351;52.284;9.160;2023-02-28T16:51:03;3.80;1.00
24207;DHT22;12351;52.284;9.160;2023-02-28T16:53:51;3.70;1.00
24207;DHT22;12351;52.284;9.160;2023-02-28T16:56:41;3.70;1.00
24207;DHT22;12351;52.284;9.160;2023-02-28T16:59:29;3.50;1.00
24207;DHT22;12351;52.284;9.160;2023-02-28T17:02:17;3.50;1.00
24207;DHT22;12351;52.284;9.160;2023-02-28T17:05:05;3.20;1.00
24207;DHT22;12351;52.284;9.160;2023-02-28T17:07:53;3.10;1.00
24207;DHT22;12351;52.284;9.160;2023-02-28T17:10:43;3.00;10.70
24207;DHT22;12351;52.284;9.160;2023-02-28T17:13:32;3.00;56.80
24207;DHT22;12351;52.284;9.160;2023-02-28T17:19:02;2.50;99.90
24207;DHT22;12351;52.284;9.160;2023-02-28T17:21:49;2.30;99.90
24207;DHT22;12351;52.284;9.160;2023-02-28T17:24:36;2.20;1.00
24207;DHT22;12351;52.284;9.160;2023-02-28T17:27:23;2.10;1.00
24207;DHT22;12351;52.284;9.160;2023-02-28T17:32:53;2.00;1.00
24207;DHT22;12351;52.284;9.160;2023-02-28T17:35:40;2.00;1.00
24207;DHT22;12351;52.284;9.160;2023-02-28T17:38:27;2.00;1.00
24207;DHT22;12351;52.284;9.160;2023-02-28T17:41:15;1.90;1.00
24207;DHT22;12351;52.284;9.160;2023-02-28T17:44:02;2.00;1.00
24207;DHT22;12351;52.284;9.160;2023-02-28T17:46:50;1.90;99.90
24207;DHT22;12351;52.284;9.160;2023-02-28T17:49:37;1.70;99.90
24207;DHT22;12351;52.284;9.160;2023-02-28T17:52:24;1.60;1.00
24207;DHT22;12351;52.284;9.160;2023-02-28T17:55:11;1.60;1.00
24207;DHT22;12351;52.284;9.160;2023-02-28T17:57:58;1.50;1.00
24207;DHT22;12351;52.284;9.160;2023-02-28T18:00:45;1.50;99.90
24207;DHT22;12351;52.284;9.160;2023-02-28T18:03:33;1.40;99.90
24207;DHT22;12351;52.284;9.160;2023-02-28T18:06:23;1.40;1.00
24207;DHT22;12351;52.284;9.160;2023-02-28T18:09:10;1.30;36.30
24207;DHT22;12351;52.284;9.160;2023-02-28T18:11:58;1.20;99.90
24207;DHT22;12351;52.284;9.160;2023-02-28T18:14:44;1.20;99.90
24207;DHT22;12351;52.284;9.160;2023-02-28T18:17:32;1.20;99.90
24207;DHT22;12351;52.284;9.160;2023-02-28T18:20:19;1.30;1.00
24207;DHT22;12351;52.284;9.160;2023-02-28T18:23:06;1.40;99.90
24207;DHT22;12351;52.284;9.160;2023-02-28T18:25:53;1.30;1.00
24207;DHT22;12351;52.284;9.160;2023-02-28T18:28:40;1.40;1.00
24207;DHT22;12351;52.284;9.160;2023-02-28T18:31:28;1.30;1.00
24207;DHT22;12351;52.284;9.160;2023-02-28T18:34:17;1.40;1.00
24207;DHT22;12351;52.284;9.160;2023-02-28T18:37:04;1.40;99.90
24207;DHT22;12351;52.284;9.160;2023-02-28T18:39:51;1.40;99.90
24207;DHT22;12351;52.284;9.160;2023-02-28T18:42:38;1.40;99.90
24207;DHT22;12351;52.284;9.160;2023-02-28T18:45:24;1.40;99.90
24207;DHT22;12351;52.284;9.160;2023-02-28T18:48:10;1.50;99.90
24207;DHT22;12351;52.284;9.160;2023-02-28T18:51:01;1.50;1.00
24207;DHT22;12351;52.284;9.160;2023-02-28T18:53:47;1.60;1.00
24207;DHT22;12351;52.284;9.160;2023-02-28T18:56:35;1.60;1.00
24207;DHT22;12351;52.284;9.160;2023-02-28T18:59:26;1.60;1.00
24207;DHT22;12351;52.284;9.160;2023-02-28T19:02:18;1.60;1.00
24207;DHT22;12351;52.284;9.160;2023-02-28T19:05:07;1.50;1.00
24207;DHT22;12351;52.284;9.160;2023-02-28T19:07:57;1.40;4.00
24207;DHT22;12351;52.284;9.160;2023-02-28T19:10:47;1.30;99.90
24207;DHT22;12351;52.284;9.160;2023-02-28T19:13:39;1.30;99.90
24207;DHT22;12351;52.284;9.160;2023-02-28T19:16:30;1.30;99.90
24207;DHT22;12351;52.284;9.160;2023-02-28T19:19:20;1.30;1.00
24207;DHT22;12351;52.284;9.160;2023-02-28T19:22:11;1.20;1.00
24207;DHT22;12351;52.284;9.160;2023-02-28T19:25:04;1.10;1.00
24207;DHT22;12351;52.284;9.160;2023-02-28T19:27:54;1.10;99.90
24207;DHT22;12351;52.284;9.160;2023-02-28T19:30:46;1.10;99.90
24207;DHT22;12351;52.284;9.160;2023-02-28T19:33:34;1.00;99.90
24207;DHT22;12351;52.284;9.160;2023-02-28T19:36:24;1.10;1.00
24207;DHT22;12351;52.284;9.160;2023-02-28T19:39:15;1.00;1.00
24207;DHT22;12351;52.284;9.160;2023-02-28T19:42:06;1.10;1.00
24207;DHT22;12351;52.284;9.160;2023-02-28T19:44:53;1.10;1.00
24207;DHT22;12351;52.284;9.160;2023-02-28T19:47:46;0.90;1.00
24207;DHT22;12351;52.284;9.160;2023-02-28T19:50:36;0.80;99.90
24207;DHT22;12351;52.284;9.160;2023-02-28T19:53:28;0.70;1.00
24207;DHT22;12351;52.284;9.160;2023-02-28T19:56:18;0.50;1.00
24207;DHT22;12351;52.284;9.160;2023-02-28T19:59:08;0.50;1.00
24207;DHT22;12351;52.284;9.160;2023-02-28T20:01:58;0.40;99.90
24207;DHT22;12351;52.284;9.160;2023-02-28T20:04:49;0.20;1.00
24207;DHT22;12351;52.284;9.160;2023-02-28T20:07:39;0.30;1.00
24207;DHT22;12351;52.284;9.160;2023-02-28T20:10:31;0.20;1.00
24207;DHT22;12351;52.284;9.160;2023-02-28T20:13:19;0.20;1.00
24207;DHT22;12351;52.284;9.160;2023-02-28T20:16:09;0.30;1.00
24207;DHT22;12351;52.284;9.160;2023-02-28T20:18:59;0.20;1.00
24207;DHT22;12351;52.284;9.160;2023-02-28T20:21:47;0.20;1.00
24207;DHT22;12351;52.284;9.160;2023-02-28T20:24:39;0.20;1.00
24207;DHT22;12351;52.284;9.160;2023-02-28T20:27:28;0.20;99.90
24207;DHT22;12351;52.284;9.160;2023-02-28T20:30:20;0.30;99.90
24207;DHT22;12351;52.284;9.160;2023-02-28T20:33:11;0.30;99.90
24207;DHT22;12351;52.284;9.160;2023-02-28T20:36:01;0.30;1.00
24207;DHT22;12351;52.284;9.160;2023-02-28T20:38:52;0.30;1.00
24207;DHT22;12351;52.284;9.160;2023-02-28T20:41:43;0.20;99.90
24207;DHT22;12351;52.284;9.160;2023-02-28T20:44:31;0.20;99.90
24207;DHT22;12351;52.284;9.160;2023-02-28T20:47:21;0.10;1.00
24207;DHT22;12351;52.284;9.160;2023-02-28T20:50:12;0.00;1.00
24207;DHT22;12351;52.284;9.160;2023-02-28T20:53:01;-0.10;1.00
24207;DHT22;12351;52.284;9.160;2023-02-28T20:58:41;-0.10;1.00
24207;DHT22;12351;52.284;9.160;2023-02-28T21:01:34;-0.10;1.00
24207;DHT22;12351;52.284;9.160;2023-02-28T21:04:23;-0.10;17.80
24207;DHT22;12351;52.284;9.160;2023-02-28T21:07:14;-0.10;1.00
24207;DHT22;12351;52.284;9.160;2023-02-28T21:10:06;-0.10;1.00
24207;DHT22;12351;52.284;9.160;2023-02-28T21:12:55;-0.10;1.00
24207;DHT22;12351;52.284;9.160;2023-02-28T21:15:43;-0.10;1.00
24207;DHT22;12351;52.284;9.160;2023-02-28T21:18:36;-0.20;26.30
24207;DHT22;12351;52.284;9.160;2023-02-28T21:24:17;-0.30;99.90
24207;DHT22;12351;52.284;9.160;2023-02-28T21:27:05;-0.20;99.90
24207;DHT22;12351;52.284;9.160;2023-02-28T21:29:54;-0.20;99.90
24207;DHT22;12351;52.284;9.160;2023-02-28T21:32:43;-0.20;99.90
24207;DHT22;12351;52.284;9.160;2023-02-28T21:35:33;-0.10;29.20
24207;DHT22;12351;52.284;9.160;2023-02-28T21:38:26;0.00;1.00
24207;DHT22;12351;52.284;9.160;2023-02-28T21:41:16;0.20;1.00
24207;DHT22;12351;52.284;9.160;2023-02-28T21:44:06;0.30;99.90